Suederoog — ZDHC8 — position and weather

sailwx.info

Track history (hours):
 
Tides and Currents Weather Stations Pressure Air Temp Water Temp Dewpoint Dewpoint Depression Visibility Wind Speed Wind Dir Waves Ship Positions

Suederoog

Last reported at 2017-Aug-05 02:21 UTC. Time now 2017-Aug-17 03:31 UTC.
Position N 28°17' W 016°04'.
Warning: this ship's position is 12 days out of date.

Length 161 m; draft 10.2 m.

Type: Ship (hazmat cat A). MMSI: 236300000.

Date/timePositionNaut miles runAvg speedWind from/ knotsBaromVisibWave heightAir tempDewpointWater temp
2017-Aug-05 02:21N 28°17' W 016°04'412.5
2017-Aug-05 02:00N 28°20' W 016°01'611.9
2017-Aug-05 01:30N 28°25' W 015°57'611.7
2017-Aug-05 01:00N 28°29' W 015°52'611.5
2017-Aug-05 00:30N 28°34' W 015°48'611.5
2017-Aug-05 00:00N 28°39' W 015°44'611.6
2017-Aug-04 23:30N 28°44' W 015°41'611.4
2017-Aug-04 23:00N 28°49' W 015°38'611.5
2017-Aug-04 22:30N 28°54' W 015°35'611.4
2017-Aug-04 22:00N 28°59' W 015°32'611.3
2017-Aug-04 21:28N 29°04' W 015°29'511.1
2017-Aug-04 20:58N 29°09' W 015°26'511.0
2017-Aug-04 20:30N 29°13' W 015°23'611.0
2017-Aug-04 20:00N 29°18' W 015°20'611.0
2017-Aug-04 19:30N 29°23' W 015°17'511.1
2017-Aug-04 19:00N 29°28' W 015°14'611.3
2017-Aug-04 18:30N 29°33' W 015°11'611.3
2017-Aug-04 18:00N 29°38' W 015°08'611.4
2017-Aug-04 17:30N 29°43' W 015°05'611.3
2017-Aug-04 17:00N 29°48' W 015°02'611.3
2017-Aug-04 16:30N 29°53' W 014°59'611.3
2017-Aug-04 16:01N 29°58' W 014°56'611.2
2017-Aug-04 15:29N 30°03' W 014°53'511.0
2017-Aug-04 15:00N 30°08' W 014°50'21411.5
2017-Aug-03 20:20N 33°17' W 012°53'5611.7
2017-Aug-03 15:31N 34°07' W 012°21'011.6
2017-Aug-03 15:30N 34°07' W 012°21'14012.0
2017-Aug-03 03:53N 36°11' W 011°02'511.8
2017-Aug-03 03:29N 36°15' W 010°59'611.7
2017-Aug-03 03:01N 36°20' W 010°56'611.8
2017-Aug-03 02:30N 36°25' W 010°52'611.9
2017-Aug-03 02:00N 36°30' W 010°49'611.8
2017-Aug-03 01:29N 36°36' W 010°45'811.6
2017-Aug-03 00:46N 36°43' W 010°40'411.8
2017-Aug-03 00:24N 36°47' W 010°38'512.2
2017-Aug-03 00:00N 36°51' W 010°35'611.7
2017-Aug-02 23:29N 36°56' W 010°32'611.5
2017-Aug-02 23:00N 37°01' W 010°28'612.0
2017-Aug-02 22:31N 37°07' W 010°25'612.2
2017-Aug-02 22:00N 37°12' W 010°21'611.9
2017-Aug-02 21:30N 37°17' W 010°18'611.4
2017-Aug-02 21:00N 37°22' W 010°14'611.3
2017-Aug-02 20:29N 37°27' W 010°11'611.9
2017-Aug-02 20:00N 37°32' W 010°07'611.9
2017-Aug-02 19:30N 37°38' W 010°04'611.8
2017-Aug-02 19:00N 37°43' W 009°60'611.9
2017-Aug-02 18:30N 37°48' W 009°56'612.1
2017-Aug-02 18:00N 37°53' W 009°53'815.4
2017-Aug-02 17:30N 38°00' W 009°49'611.7
2017-Aug-02 17:00N 38°05' W 009°45'611.7
2017-Aug-02 16:30N 38°10' W 009°41'611.8
2017-Aug-02 16:00N 38°16' W 009°39'612.1
2017-Aug-02 15:30N 38°21' W 009°35'612.0
2017-Aug-02 15:00N 38°27' W 009°32'1211.6
2017-Aug-02 14:00N 38°37' W 009°24'612.2
2017-Aug-02 13:30N 38°41' W 009°18'610.6
2017-Aug-02 12:59N 38°42' W 009°11'1 0.8
2017-Aug-02 11:48N 38°42' W 009°10'0 0.0
2017-Aug-02 11:30N 38°42' W 009°10'0 0.0
2017-Aug-02 10:48N 38°42' W 009°10'0 0.0
2017-Aug-02 10:18N 38°42' W 009°10'0 0.0
2017-Aug-02 10:00N 38°42' W 009°10'0 0.0
2017-Aug-02 09:24N 38°42' W 009°10'0 0.0
2017-Aug-02 08:45N 38°42' W 009°10'0 0.0
2017-Aug-02 05:48N 38°42' W 009°10'0 0.0
2017-Aug-02 05:15N 38°42' W 009°10'0 0.0
2017-Aug-02 02:57N 38°42' W 009°10'0 0.0
2017-Aug-02 01:54N 38°42' W 009°10'  
2017-Jul-29 17:59N 36°07' W 006°19'0 0.3
2017-Jul-29 17:27N 36°07' W 006°19'0 0.0
2017-Jul-29 16:57N 36°07' W 006°19'0 0.0
2017-Jul-29 04:24N 36°07' W 006°19'0 0.0
2017-Jul-29 04:00N 36°07' W 006°19'0 0.0
2017-Jul-29 03:30N 36°07' W 006°19'0 0.0
2017-Jul-29 02:12N 36°07' W 006°19'0 0.0
2017-Jul-29 02:00N 36°07' W 006°19'0 0.0
2017-Jul-28 08:33N 36°07' W 006°19'0 0.0
2017-Jul-28 02:21N 36°07' W 006°19'0 0.0
2017-Jul-28 00:51N 36°07' W 006°19'0 0.0
2017-Jul-28 00:21N 36°07' W 006°19'0 0.1
2017-Jul-28 00:00N 36°07' W 006°19'  
Track history (hours):
 
Tides and Currents Weather Stations Pressure Air Temp Water Temp Dewpoint Dewpoint Depression Visibility Wind Speed Wind Dir Waves Ship Positions

Suederoog

Last reported at 2017-Aug-05 02:21 UTC. Time now 2017-Aug-17 03:31 UTC.
Position N 28°17' W 016°04'.
Warning: this ship's position is 12 days out of date.

Length 161 m; draft 10.2 m.

Type: Ship (hazmat cat A). MMSI: 236300000.

Date/timePositionNaut miles runAvg speedWind from/ knotsBaromVisibWave heightAir tempDewpointWater temp
2017-Aug-05 02:21N 28°17' W 016°04'412.5
2017-Aug-05 02:00N 28°20' W 016°01'611.9
2017-Aug-05 01:30N 28°25' W 015°57'611.7
2017-Aug-05 01:00N 28°29' W 015°52'611.5
2017-Aug-05 00:30N 28°34' W 015°48'611.5
2017-Aug-05 00:00N 28°39' W 015°44'611.6
2017-Aug-04 23:30N 28°44' W 015°41'611.4
2017-Aug-04 23:00N 28°49' W 015°38'611.5
2017-Aug-04 22:30N 28°54' W 015°35'611.4
2017-Aug-04 22:00N 28°59' W 015°32'611.3
2017-Aug-04 21:28N 29°04' W 015°29'511.1
2017-Aug-04 20:58N 29°09' W 015°26'511.0
2017-Aug-04 20:30N 29°13' W 015°23'611.0
2017-Aug-04 20:00N 29°18' W 015°20'611.0
2017-Aug-04 19:30N 29°23' W 015°17'511.1
2017-Aug-04 19:00N 29°28' W 015°14'611.3
2017-Aug-04 18:30N 29°33' W 015°11'611.3
2017-Aug-04 18:00N 29°38' W 015°08'611.4
2017-Aug-04 17:30N 29°43' W 015°05'611.3
2017-Aug-04 17:00N 29°48' W 015°02'611.3
2017-Aug-04 16:30N 29°53' W 014°59'611.3
2017-Aug-04 16:01N 29°58' W 014°56'611.2
2017-Aug-04 15:29N 30°03' W 014°53'511.0
2017-Aug-04 15:00N 30°08' W 014°50'21411.5
2017-Aug-03 20:20N 33°17' W 012°53'5611.7
2017-Aug-03 15:31N 34°07' W 012°21'011.6
2017-Aug-03 15:30N 34°07' W 012°21'14012.0
2017-Aug-03 03:53N 36°11' W 011°02'511.8
2017-Aug-03 03:29N 36°15' W 010°59'611.7
2017-Aug-03 03:01N 36°20' W 010°56'611.8
2017-Aug-03 02:30N 36°25' W 010°52'611.9
2017-Aug-03 02:00N 36°30' W 010°49'611.8
2017-Aug-03 01:29N 36°36' W 010°45'811.6
2017-Aug-03 00:46N 36°43' W 010°40'411.8
2017-Aug-03 00:24N 36°47' W 010°38'512.2
2017-Aug-03 00:00N 36°51' W 010°35'611.7
2017-Aug-02 23:29N 36°56' W 010°32'611.5
2017-Aug-02 23:00N 37°01' W 010°28'612.0
2017-Aug-02 22:31N 37°07' W 010°25'612.2
2017-Aug-02 22:00N 37°12' W 010°21'611.9
2017-Aug-02 21:30N 37°17' W 010°18'611.4
2017-Aug-02 21:00N 37°22' W 010°14'611.3
2017-Aug-02 20:29N 37°27' W 010°11'611.9
2017-Aug-02 20:00N 37°32' W 010°07'611.9
2017-Aug-02 19:30N 37°38' W 010°04'611.8
2017-Aug-02 19:00N 37°43' W 009°60'611.9
2017-Aug-02 18:30N 37°48' W 009°56'612.1
2017-Aug-02 18:00N 37°53' W 009°53'815.4
2017-Aug-02 17:30N 38°00' W 009°49'611.7
2017-Aug-02 17:00N 38°05' W 009°45'611.7
2017-Aug-02 16:30N 38°10' W 009°41'611.8
2017-Aug-02 16:00N 38°16' W 009°39'612.1
2017-Aug-02 15:30N 38°21' W 009°35'612.0
2017-Aug-02 15:00N 38°27' W 009°32'1211.6
2017-Aug-02 14:00N 38°37' W 009°24'612.2
2017-Aug-02 13:30N 38°41' W 009°18'610.6
2017-Aug-02 12:59N 38°42' W 009°11'1 0.8
2017-Aug-02 11:48N 38°42' W 009°10'0 0.0
2017-Aug-02 11:30N 38°42' W 009°10'0 0.0
2017-Aug-02 10:48N 38°42' W 009°10'0 0.0
2017-Aug-02 10:18N 38°42' W 009°10'0 0.0
2017-Aug-02 10:00N 38°42' W 009°10'0 0.0
2017-Aug-02 09:24N 38°42' W 009°10'0 0.0
2017-Aug-02 08:45N 38°42' W 009°10'0 0.0
2017-Aug-02 05:48N 38°42' W 009°10'0 0.0
2017-Aug-02 05:15N 38°42' W 009°10'0 0.0
2017-Aug-02 02:57N 38°42' W 009°10'0 0.0
2017-Aug-02 01:54N 38°42' W 009°10'  
2017-Jul-29 17:59N 36°07' W 006°19'0 0.3
2017-Jul-29 17:27N 36°07' W 006°19'0 0.0
2017-Jul-29 16:57N 36°07' W 006°19'0 0.0
2017-Jul-29 04:24N 36°07' W 006°19'0 0.0
2017-Jul-29 04:00N 36°07' W 006°19'0 0.0
2017-Jul-29 03:30N 36°07' W 006°19'0 0.0
2017-Jul-29 02:12N 36°07' W 006°19'0 0.0
2017-Jul-29 02:00N 36°07' W 006°19'0 0.0
2017-Jul-28 08:33N 36°07' W 006°19'0 0.0
2017-Jul-28 02:21N 36°07' W 006°19'0 0.0
2017-Jul-28 00:51N 36°07' W 006°19'0 0.0
2017-Jul-28 00:21N 36°07' W 006°19'0 0.1
2017-Jul-28 00:00N 36°07' W 006°19'  

Dump ship's entire track history